Terminal Aerodrome Forecast
Issued by NWS

Home | Current Version | Previous Version | Text Only | Print | Product List | Glossary On
Versions: 1 2 3 4 5 6 7 8 9 10 11 12 13 14
000
FTUS45 KRIW 170838 AAA
TAFBPI
TAF AMD
KBPI 170838Z 1709/1806 VRB05KT 3SM -SN SCT012 OVC024
      TEMPO 1709/1712 1 1/2SM -SN BKN012
     FM171200 31018G28KT P6SM VCSH SCT025 OVC040
     FM171800 31022G32KT P6SM VCSH BKN050
     FM180400 35011G19KT P6SM SCT100=

USA.gov is the U.S. government's official web portal to all federal, state and local government web resources and services.